sensor_id;sensor_type;location;lat;lon;timestamp;P1;durP1;ratioP1;P2;durP2;ratioP2
51499;SDS011;39101;53.478;6.158;2024-02-26T00:02:22;3.00;;;2.00;;
51499;SDS011;39101;53.478;6.158;2024-02-26T00:04:48;7.23;;;2.47;;
51499;SDS011;39101;53.478;6.158;2024-02-26T00:07:15;3.87;;;2.23;;
51499;SDS011;39101;53.478;6.158;2024-02-26T00:09:41;6.37;;;2.87;;
51499;SDS011;39101;53.478;6.158;2024-02-26T00:12:06;8.27;;;2.27;;
51499;SDS011;39101;53.478;6.158;2024-02-26T00:14:32;6.03;;;1.90;;
51499;SDS011;39101;53.478;6.158;2024-02-26T00:16:58;3.13;;;1.50;;
51499;SDS011;39101;53.478;6.158;2024-02-26T00:19:24;6.77;;;2.00;;
51499;SDS011;39101;53.478;6.158;2024-02-26T00:21:50;3.90;;;1.50;;
51499;SDS011;39101;53.478;6.158;2024-02-26T00:24:16;4.70;;;2.10;;
51499;SDS011;39101;53.478;6.158;2024-02-26T00:26:41;5.73;;;1.20;;
51499;SDS011;39101;53.478;6.158;2024-02-26T00:29:07;5.83;;;1.33;;
51499;SDS011;39101;53.478;6.158;2024-02-26T00:31:33;6.13;;;1.40;;
51499;SDS011;39101;53.478;6.158;2024-02-26T00:33:58;5.03;;;1.50;;
51499;SDS011;39101;53.478;6.158;2024-02-26T00:36:24;3.13;;;1.37;;
51499;SDS011;39101;53.478;6.158;2024-02-26T00:38:50;5.10;;;1.97;;
51499;SDS011;39101;53.478;6.158;2024-02-26T00:41:19;3.83;;;1.40;;
51499;SDS011;39101;53.478;6.158;2024-02-26T00:43:45;4.85;;;1.60;;
51499;SDS011;39101;53.478;6.158;2024-02-26T00:46:11;3.67;;;1.73;;
51499;SDS011;39101;53.478;6.158;2024-02-26T00:48:37;4.97;;;1.70;;
51499;SDS011;39101;53.478;6.158;2024-02-26T00:51:03;5.30;;;1.90;;
51499;SDS011;39101;53.478;6.158;2024-02-26T00:53:30;5.03;;;1.60;;
51499;SDS011;39101;53.478;6.158;2024-02-26T00:55:56;5.17;;;1.20;;
51499;SDS011;39101;53.478;6.158;2024-02-26T00:58:24;3.43;;;1.40;;
51499;SDS011;39101;53.478;6.158;2024-02-26T01:00:50;5.23;;;1.53;;
51499;SDS011;39101;53.478;6.158;2024-02-26T01:03:16;3.40;;;1.30;;
51499;SDS011;39101;53.478;6.158;2024-02-26T01:05:42;3.80;;;1.30;;
51499;SDS011;39101;53.478;6.158;2024-02-26T01:08:08;2.83;;;1.20;;
51499;SDS011;39101;53.478;6.158;2024-02-26T01:10:34;4.53;;;1.23;;
51499;SDS011;39101;53.478;6.158;2024-02-26T01:13:00;4.33;;;1.10;;
51499;SDS011;39101;53.478;6.158;2024-02-26T01:15:26;9.90;;;1.57;;
51499;SDS011;39101;53.478;6.158;2024-02-26T01:17:52;3.40;;;1.40;;
51499;SDS011;39101;53.478;6.158;2024-02-26T01:20:18;4.97;;;1.00;;
51499;SDS011;39101;53.478;6.158;2024-02-26T01:22:43;4.30;;;1.00;;
51499;SDS011;39101;53.478;6.158;2024-02-26T01:25:09;2.37;;;0.90;;
51499;SDS011;39101;53.478;6.158;2024-02-26T01:27:36;4.47;;;1.23;;
51499;SDS011;39101;53.478;6.158;2024-02-26T01:30:03;7.37;;;1.20;;
51499;SDS011;39101;53.478;6.158;2024-02-26T01:32:29;6.97;;;1.30;;
51499;SDS011;39101;53.478;6.158;2024-02-26T01:34:56;1.67;;;0.87;;
51499;SDS011;39101;53.478;6.158;2024-02-26T01:37:22;5.07;;;0.90;;
51499;SDS011;39101;53.478;6.158;2024-02-26T01:39:48;4.37;;;0.80;;
51499;SDS011;39101;53.478;6.158;2024-02-26T01:42:13;6.67;;;1.13;;
51499;SDS011;39101;53.478;6.158;2024-02-26T01:44:39;4.33;;;0.87;;
51499;SDS011;39101;53.478;6.158;2024-02-26T01:47:05;2.77;;;1.00;;
51499;SDS011;39101;53.478;6.158;2024-02-26T01:49:33;5.13;;;1.13;;
51499;SDS011;39101;53.478;6.158;2024-02-26T01:52:00;3.20;;;0.90;;
51499;SDS011;39101;53.478;6.158;2024-02-26T01:54:27;2.10;;;0.80;;
51499;SDS011;39101;53.478;6.158;2024-02-26T01:56:55;3.50;;;0.80;;
51499;SDS011;39101;53.478;6.158;2024-02-26T01:59:21;4.13;;;1.00;;
51499;SDS011;39101;53.478;6.158;2024-02-26T02:01:48;3.90;;;0.87;;
51499;SDS011;39101;53.478;6.158;2024-02-26T02:04:20;2.50;;;0.70;;
51499;SDS011;39101;53.478;6.158;2024-02-26T02:06:47;3.73;;;1.03;;
51499;SDS011;39101;53.478;6.158;2024-02-26T02:09:14;3.10;;;0.90;;
51499;SDS011;39101;53.478;6.158;2024-02-26T02:11:40;3.57;;;0.93;;
51499;SDS011;39101;53.478;6.158;2024-02-26T02:14:06;6.00;;;0.90;;
51499;SDS011;39101;53.478;6.158;2024-02-26T02:16:32;8.10;;;1.47;;
51499;SDS011;39101;53.478;6.158;2024-02-26T02:18:58;3.90;;;1.80;;
51499;SDS011;39101;53.478;6.158;2024-02-26T02:21:24;6.67;;;0.90;;
51499;SDS011;39101;53.478;6.158;2024-02-26T02:23:49;3.47;;;0.97;;
51499;SDS011;39101;53.478;6.158;2024-02-26T02:26:15;2.33;;;0.80;;
51499;SDS011;39101;53.478;6.158;2024-02-26T02:28:42;3.50;;;0.90;;
51499;SDS011;39101;53.478;6.158;2024-02-26T02:31:09;4.17;;;0.93;;
51499;SDS011;39101;53.478;6.158;2024-02-26T02:33:35;4.53;;;0.90;;
51499;SDS011;39101;53.478;6.158;2024-02-26T02:36:01;3.50;;;1.00;;
51499;SDS011;39101;53.478;6.158;2024-02-26T02:38:27;3.47;;;0.87;;
51499;SDS011;39101;53.478;6.158;2024-02-26T02:40:55;5.40;;;1.00;;
51499;SDS011;39101;53.478;6.158;2024-02-26T02:43:20;2.83;;;0.80;;
51499;SDS011;39101;53.478;6.158;2024-02-26T02:45:46;2.67;;;0.93;;
51499;SDS011;39101;53.478;6.158;2024-02-26T02:48:12;2.37;;;1.10;;
51499;SDS011;39101;53.478;6.158;2024-02-26T02:50:37;3.60;;;0.93;;
51499;SDS011;39101;53.478;6.158;2024-02-26T02:53:03;4.90;;;0.90;;
51499;SDS011;39101;53.478;6.158;2024-02-26T02:55:29;1.17;;;0.50;;
51499;SDS011;39101;53.478;6.158;2024-02-26T02:57:55;3.57;;;1.10;;
51499;SDS011;39101;53.478;6.158;2024-02-26T03:00:20;4.57;;;0.70;;
51499;SDS011;39101;53.478;6.158;2024-02-26T03:02:49;2.17;;;0.87;;
51499;SDS011;39101;53.478;6.158;2024-02-26T03:05:15;2.37;;;0.80;;
51499;SDS011;39101;53.478;6.158;2024-02-26T03:07:41;3.37;;;1.00;;
51499;SDS011;39101;53.478;6.158;2024-02-26T03:10:07;3.07;;;0.80;;
51499;SDS011;39101;53.478;6.158;2024-02-26T03:12:33;17.60;;;2.93;;
51499;SDS011;39101;53.478;6.158;2024-02-26T03:15:00;4.07;;;1.10;;
51499;SDS011;39101;53.478;6.158;2024-02-26T03:17:29;3.03;;;1.37;;
51499;SDS011;39101;53.478;6.158;2024-02-26T03:19:55;6.70;;;1.33;;
51499;SDS011;39101;53.478;6.158;2024-02-26T03:22:21;6.33;;;1.27;;
51499;SDS011;39101;53.478;6.158;2024-02-26T03:24:47;3.57;;;1.27;;
51499;SDS011;39101;53.478;6.158;2024-02-26T03:27:13;2.97;;;1.27;;
51499;SDS011;39101;53.478;6.158;2024-02-26T03:29:39;4.43;;;1.20;;
51499;SDS011;39101;53.478;6.158;2024-02-26T03:32:05;5.30;;;1.37;;
51499;SDS011;39101;53.478;6.158;2024-02-26T03:34:31;5.30;;;1.37;;
51499;SDS011;39101;53.478;6.158;2024-02-26T03:36:59;5.77;;;1.50;;
51499;SDS011;39101;53.478;6.158;2024-02-26T03:39:25;3.40;;;1.50;;
51499;SDS011;39101;53.478;6.158;2024-02-26T03:41:51;5.70;;;1.20;;
51499;SDS011;39101;53.478;6.158;2024-02-26T03:44:17;5.60;;;1.27;;
51499;SDS011;39101;53.478;6.158;2024-02-26T03:46:44;1.50;;;1.13;;
51499;SDS011;39101;53.478;6.158;2024-02-26T03:49:10;5.53;;;1.57;;
51499;SDS011;39101;53.478;6.158;2024-02-26T03:51:35;2.13;;;1.03;;
51499;SDS011;39101;53.478;6.158;2024-02-26T03:54:02;9.50;;;1.20;;
51499;SDS011;39101;53.478;6.158;2024-02-26T03:56:28;4.00;;;1.20;;
51499;SDS011;39101;53.478;6.158;2024-02-26T03:58:54;1.77;;;0.90;;
51499;SDS011;39101;53.478;6.158;2024-02-26T04:01:19;3.63;;;0.93;;
51499;SDS011;39101;53.478;6.158;2024-02-26T04:03:45;2.00;;;0.90;;
51499;SDS011;39101;53.478;6.158;2024-02-26T04:06:11;2.13;;;1.10;;
51499;SDS011;39101;53.478;6.158;2024-02-26T04:08:40;3.10;;;1.00;;
51499;SDS011;39101;53.478;6.158;2024-02-26T04:11:06;2.93;;;0.90;;
51499;SDS011;39101;53.478;6.158;2024-02-26T04:13:32;4.30;;;1.07;;
51499;SDS011;39101;53.478;6.158;2024-02-26T04:15:59;2.83;;;1.00;;
51499;SDS011;39101;53.478;6.158;2024-02-26T04:18:26;2.83;;;1.20;;
51499;SDS011;39101;53.478;6.158;2024-02-26T04:20:53;3.47;;;0.80;;
51499;SDS011;39101;53.478;6.158;2024-02-26T04:23:19;5.50;;;1.10;;
51499;SDS011;39101;53.478;6.158;2024-02-26T04:25:45;4.17;;;0.80;;
51499;SDS011;39101;53.478;6.158;2024-02-26T04:28:10;4.73;;;1.00;;
51499;SDS011;39101;53.478;6.158;2024-02-26T04:30:37;7.77;;;1.07;;
51499;SDS011;39101;53.478;6.158;2024-02-26T04:33:03;4.20;;;1.07;;
51499;SDS011;39101;53.478;6.158;2024-02-26T04:35:29;4.83;;;0.73;;
51499;SDS011;39101;53.478;6.158;2024-02-26T04:37:55;2.83;;;0.80;;
51499;SDS011;39101;53.478;6.158;2024-02-26T04:40:20;5.13;;;0.87;;
51499;SDS011;39101;53.478;6.158;2024-02-26T04:42:46;2.73;;;1.00;;
51499;SDS011;39101;53.478;6.158;2024-02-26T04:45:12;3.77;;;0.70;;
51499;SDS011;39101;53.478;6.158;2024-02-26T04:47:38;3.80;;;0.83;;
51499;SDS011;39101;53.478;6.158;2024-02-26T04:50:04;2.33;;;0.80;;
51499;SDS011;39101;53.478;6.158;2024-02-26T04:52:30;4.07;;;0.70;;
51499;SDS011;39101;53.478;6.158;2024-02-26T04:54:56;2.77;;;0.77;;
51499;SDS011;39101;53.478;6.158;2024-02-26T04:57:21;0.93;;;0.47;;
51499;SDS011;39101;53.478;6.158;2024-02-26T04:59:47;6.13;;;0.60;;
51499;SDS011;39101;53.478;6.158;2024-02-26T05:02:13;3.37;;;0.70;;
51499;SDS011;39101;53.478;6.158;2024-02-26T05:04:39;6.50;;;0.77;;
51499;SDS011;39101;53.478;6.158;2024-02-26T05:07:05;1.00;;;0.60;;
51499;SDS011;39101;53.478;6.158;2024-02-26T05:09:31;2.00;;;0.73;;
51499;SDS011;39101;53.478;6.158;2024-02-26T05:11:57;1.80;;;0.60;;
51499;SDS011;39101;53.478;6.158;2024-02-26T05:14:22;5.87;;;0.90;;
51499;SDS011;39101;53.478;6.158;2024-02-26T05:16:48;4.07;;;0.60;;
51499;SDS011;39101;53.478;6.158;2024-02-26T05:19:14;3.27;;;0.90;;
51499;SDS011;39101;53.478;6.158;2024-02-26T05:21:39;3.60;;;0.77;;
51499;SDS011;39101;53.478;6.158;2024-02-26T05:24:06;4.00;;;0.50;;
51499;SDS011;39101;53.478;6.158;2024-02-26T05:26:31;3.90;;;0.87;;
51499;SDS011;39101;53.478;6.158;2024-02-26T05:28:57;1.03;;;0.60;;
51499;SDS011;39101;53.478;6.158;2024-02-26T05:31:25;3.50;;;0.80;;
51499;SDS011;39101;53.478;6.158;2024-02-26T05:33:51;4.03;;;0.70;;
51499;SDS011;39101;53.478;6.158;2024-02-26T05:36:18;4.40;;;0.77;;
51499;SDS011;39101;53.478;6.158;2024-02-26T05:38:44;7.47;;;0.63;;
51499;SDS011;39101;53.478;6.158;2024-02-26T05:41:11;6.17;;;0.80;;
51499;SDS011;39101;53.478;6.158;2024-02-26T05:43:37;1.87;;;0.73;;
51499;SDS011;39101;53.478;6.158;2024-02-26T05:46:03;4.40;;;0.80;;
51499;SDS011;39101;53.478;6.158;2024-02-26T05:48:28;3.33;;;1.00;;
51499;SDS011;39101;53.478;6.158;2024-02-26T05:50:54;1.43;;;0.50;;
51499;SDS011;39101;53.478;6.158;2024-02-26T05:53:20;2.87;;;0.60;;
51499;SDS011;39101;53.478;6.158;2024-02-26T05:55:46;2.60;;;0.70;;
51499;SDS011;39101;53.478;6.158;2024-02-26T05:58:11;5.27;;;1.10;;
51499;SDS011;39101;53.478;6.158;2024-02-26T06:00:37;2.53;;;0.60;;
51499;SDS011;39101;53.478;6.158;2024-02-26T06:03:03;4.93;;;0.87;;
51499;SDS011;39101;53.478;6.158;2024-02-26T06:05:28;3.17;;;1.00;;
51499;SDS011;39101;53.478;6.158;2024-02-26T06:07:54;4.13;;;0.87;;
51499;SDS011;39101;53.478;6.158;2024-02-26T06:10:20;4.07;;;1.13;;
51499;SDS011;39101;53.478;6.158;2024-02-26T06:12:46;2.10;;;1.03;;
51499;SDS011;39101;53.478;6.158;2024-02-26T06:15:12;4.57;;;1.10;;
51499;SDS011;39101;53.478;6.158;2024-02-26T06:17:38;2.37;;;0.97;;
51499;SDS011;39101;53.478;6.158;2024-02-26T06:20:04;4.30;;;1.03;;
51499;SDS011;39101;53.478;6.158;2024-02-26T06:22:31;4.57;;;1.10;;
51499;SDS011;39101;53.478;6.158;2024-02-26T06:24:57;4.27;;;1.23;;
51499;SDS011;39101;53.478;6.158;2024-02-26T06:27:23;5.23;;;2.63;;
51499;SDS011;39101;53.478;6.158;2024-02-26T06:29:49;6.20;;;1.20;;
51499;SDS011;39101;53.478;6.158;2024-02-26T06:32:15;3.40;;;1.17;;
51499;SDS011;39101;53.478;6.158;2024-02-26T06:34:40;3.90;;;1.10;;
51499;SDS011;39101;53.478;6.158;2024-02-26T06:37:07;6.20;;;1.43;;
51499;SDS011;39101;53.478;6.158;2024-02-26T06:39:33;4.90;;;1.27;;
51499;SDS011;39101;53.478;6.158;2024-02-26T06:41:59;3.40;;;1.10;;
51499;SDS011;39101;53.478;6.158;2024-02-26T06:44:27;6.07;;;1.20;;
51499;SDS011;39101;53.478;6.158;2024-02-26T06:47:00;3.53;;;1.53;;
51499;SDS011;39101;53.478;6.158;2024-02-26T06:49:26;3.23;;;1.10;;
51499;SDS011;39101;53.478;6.158;2024-02-26T06:51:53;4.10;;;1.20;;
51499;SDS011;39101;53.478;6.158;2024-02-26T06:54:18;5.17;;;1.13;;
51499;SDS011;39101;53.478;6.158;2024-02-26T06:56:44;6.57;;;0.97;;
51499;SDS011;39101;53.478;6.158;2024-02-26T06:59:10;5.67;;;1.63;;
51499;SDS011;39101;53.478;6.158;2024-02-26T07:01:36;6.90;;;1.60;;
51499;SDS011;39101;53.478;6.158;2024-02-26T07:04:01;6.40;;;1.67;;
51499;SDS011;39101;53.478;6.158;2024-02-26T07:06:27;6.60;;;1.63;;
51499;SDS011;39101;53.478;6.158;2024-02-26T07:08:53;6.10;;;1.70;;
51499;SDS011;39101;53.478;6.158;2024-02-26T07:11:19;5.23;;;1.87;;
51499;SDS011;39101;53.478;6.158;2024-02-26T07:13:45;6.23;;;1.87;;
51499;SDS011;39101;53.478;6.158;2024-02-26T07:16:11;7.90;;;1.77;;
51499;SDS011;39101;53.478;6.158;2024-02-26T07:18:37;8.90;;;1.77;;
51499;SDS011;39101;53.478;6.158;2024-02-26T07:21:06;5.43;;;1.80;;
51499;SDS011;39101;53.478;6.158;2024-02-26T07:23:32;6.33;;;2.10;;
51499;SDS011;39101;53.478;6.158;2024-02-26T07:25:57;4.90;;;1.63;;
51499;SDS011;39101;53.478;6.158;2024-02-26T07:28:24;3.57;;;1.80;;
51499;SDS011;39101;53.478;6.158;2024-02-26T07:30:50;5.27;;;1.97;;
51499;SDS011;39101;53.478;6.158;2024-02-26T07:33:16;7.70;;;3.20;;
51499;SDS011;39101;53.478;6.158;2024-02-26T07:35:41;4.50;;;1.80;;
51499;SDS011;39101;53.478;6.158;2024-02-26T07:38:07;7.13;;;1.57;;
51499;SDS011;39101;53.478;6.158;2024-02-26T07:40:33;5.23;;;1.83;;
51499;SDS011;39101;53.478;6.158;2024-02-26T07:42:58;8.00;;;1.87;;
51499;SDS011;39101;53.478;6.158;2024-02-26T07:45:24;29.27;;;4.10;;
51499;SDS011;39101;53.478;6.158;2024-02-26T07:47:50;6.47;;;2.00;;
51499;SDS011;39101;53.478;6.158;2024-02-26T07:50:17;8.40;;;1.73;;
51499;SDS011;39101;53.478;6.158;2024-02-26T07:52:43;6.83;;;2.13;;
51499;SDS011;39101;53.478;6.158;2024-02-26T07:55:09;2.77;;;1.57;;
51499;SDS011;39101;53.478;6.158;2024-02-26T07:57:35;5.87;;;1.27;;
51499;SDS011;39101;53.478;6.158;2024-02-26T08:00:02;13.80;;;2.23;;
51499;SDS011;39101;53.478;6.158;2024-02-26T08:02:28;6.93;;;1.77;;
51499;SDS011;39101;53.478;6.158;2024-02-26T08:04:54;11.30;;;2.10;;
51499;SDS011;39101;53.478;6.158;2024-02-26T08:07:20;6.40;;;1.60;;
51499;SDS011;39101;53.478;6.158;2024-02-26T08:09:46;6.03;;;1.47;;
51499;SDS011;39101;53.478;6.158;2024-02-26T08:12:12;7.30;;;1.57;;
51499;SDS011;39101;53.478;6.158;2024-02-26T08:14:38;9.20;;;2.60;;
51499;SDS011;39101;53.478;6.158;2024-02-26T08:17:04;5.83;;;1.37;;
51499;SDS011;39101;53.478;6.158;2024-02-26T08:19:29;7.30;;;1.70;;
51499;SDS011;39101;53.478;6.158;2024-02-26T08:21:55;6.80;;;1.60;;
51499;SDS011;39101;53.478;6.158;2024-02-26T08:24:21;2.33;;;1.27;;
51499;SDS011;39101;53.478;6.158;2024-02-26T08:26:46;6.80;;;1.50;;
51499;SDS011;39101;53.478;6.158;2024-02-26T08:29:12;4.83;;;1.70;;
51499;SDS011;39101;53.478;6.158;2024-02-26T08:31:38;8.67;;;2.13;;
51499;SDS011;39101;53.478;6.158;2024-02-26T08:34:04;6.20;;;1.60;;
51499;SDS011;39101;53.478;6.158;2024-02-26T08:36:33;5.43;;;1.40;;
51499;SDS011;39101;53.478;6.158;2024-02-26T08:38:59;6.05;;;1.70;;
51499;SDS011;39101;53.478;6.158;2024-02-26T08:41:25;8.03;;;1.67;;
51499;SDS011;39101;53.478;6.158;2024-02-26T08:43:51;6.33;;;1.60;;
51499;SDS011;39101;53.478;6.158;2024-02-26T08:46:17;3.30;;;1.30;;
51499;SDS011;39101;53.478;6.158;2024-02-26T08:48:42;8.37;;;1.60;;
51499;SDS011;39101;53.478;6.158;2024-02-26T08:51:08;5.73;;;1.37;;
51499;SDS011;39101;53.478;6.158;2024-02-26T08:53:35;7.93;;;2.80;;
51499;SDS011;39101;53.478;6.158;2024-02-26T08:56:01;5.70;;;1.60;;
51499;SDS011;39101;53.478;6.158;2024-02-26T08:58:27;5.07;;;1.50;;
51499;SDS011;39101;53.478;6.158;2024-02-26T09:00:53;7.53;;;1.47;;
51499;SDS011;39101;53.478;6.158;2024-02-26T09:03:19;6.60;;;1.77;;
51499;SDS011;39101;53.478;6.158;2024-02-26T09:05:45;4.53;;;1.83;;
51499;SDS011;39101;53.478;6.158;2024-02-26T09:08:11;5.90;;;1.40;;
51499;SDS011;39101;53.478;6.158;2024-02-26T09:10:37;5.50;;;1.43;;
51499;SDS011;39101;53.478;6.158;2024-02-26T09:13:03;8.07;;;1.57;;
51499;SDS011;39101;53.478;6.158;2024-02-26T09:15:29;6.70;;;1.80;;
51499;SDS011;39101;53.478;6.158;2024-02-26T09:17:55;8.10;;;2.13;;
51499;SDS011;39101;53.478;6.158;2024-02-26T09:20:21;5.20;;;1.53;;
51499;SDS011;39101;53.478;6.158;2024-02-26T09:22:47;9.47;;;2.17;;
51499;SDS011;39101;53.478;6.158;2024-02-26T09:25:13;9.03;;;2.10;;
51499;SDS011;39101;53.478;6.158;2024-02-26T09:27:41;5.73;;;2.00;;
51499;SDS011;39101;53.478;6.158;2024-02-26T09:30:08;7.83;;;1.90;;
51499;SDS011;39101;53.478;6.158;2024-02-26T09:32:37;10.13;;;2.40;;
51499;SDS011;39101;53.478;6.158;2024-02-26T09:35:04;6.10;;;1.67;;
51499;SDS011;39101;53.478;6.158;2024-02-26T09:37:30;9.10;;;1.83;;
51499;SDS011;39101;53.478;6.158;2024-02-26T09:39:56;7.30;;;2.33;;
51499;SDS011;39101;53.478;6.158;2024-02-26T09:42:22;7.73;;;2.30;;
51499;SDS011;39101;53.478;6.158;2024-02-26T09:44:51;10.70;;;2.00;;
51499;SDS011;39101;53.478;6.158;2024-02-26T09:47:23;10.87;;;2.40;;
51499;SDS011;39101;53.478;6.158;2024-02-26T09:49:50;6.57;;;2.00;;
51499;SDS011;39101;53.478;6.158;2024-02-26T09:52:18;7.77;;;1.70;;
51499;SDS011;39101;53.478;6.158;2024-02-26T09:54:48;6.60;;;2.00;;
51499;SDS011;39101;53.478;6.158;2024-02-26T09:57:14;7.27;;;1.90;;
51499;SDS011;39101;53.478;6.158;2024-02-26T09:59:42;5.13;;;1.63;;
51499;SDS011;39101;53.478;6.158;2024-02-26T10:02:09;4.53;;;1.80;;
51499;SDS011;39101;53.478;6.158;2024-02-26T10:04:38;6.47;;;2.40;;
51499;SDS011;39101;53.478;6.158;2024-02-26T10:07:06;5.77;;;2.10;;
51499;SDS011;39101;53.478;6.158;2024-02-26T10:09:36;11.67;;;2.97;;
51499;SDS011;39101;53.478;6.158;2024-02-26T10:12:02;6.37;;;2.30;;
51499;SDS011;39101;53.478;6.158;2024-02-26T10:14:29;7.93;;;2.30;;
51499;SDS011;39101;53.478;6.158;2024-02-26T10:16:55;9.57;;;2.40;;
51499;SDS011;39101;53.478;6.158;2024-02-26T10:19:25;7.93;;;3.20;;
51499;SDS011;39101;53.478;6.158;2024-02-26T10:21:59;8.83;;;3.57;;
51499;SDS011;39101;53.478;6.158;2024-02-26T10:26:52;15.83;;;3.57;;
51499;SDS011;39101;53.478;6.158;2024-02-26T10:29:19;7.73;;;2.40;;
51499;SDS011;39101;53.478;6.158;2024-02-26T10:31:45;8.23;;;2.80;;
51499;SDS011;39101;53.478;6.158;2024-02-26T10:34:11;9.23;;;2.80;;
51499;SDS011;39101;53.478;6.158;2024-02-26T10:36:38;12.30;;;3.57;;
51499;SDS011;39101;53.478;6.158;2024-02-26T10:39:07;10.67;;;3.27;;
51499;SDS011;39101;53.478;6.158;2024-02-26T10:41:33;10.93;;;3.80;;
51499;SDS011;39101;53.478;6.158;2024-02-26T10:43:59;16.03;;;5.97;;
51499;SDS011;39101;53.478;6.158;2024-02-26T10:46:25;12.43;;;3.27;;
51499;SDS011;39101;53.478;6.158;2024-02-26T10:48:51;10.27;;;3.30;;
51499;SDS011;39101;53.478;6.158;2024-02-26T10:51:24;10.00;;;3.10;;
51499;SDS011;39101;53.478;6.158;2024-02-26T10:53:54;9.63;;;2.87;;
51499;SDS011;39101;53.478;6.158;2024-02-26T10:56:24;11.67;;;3.63;;
51499;SDS011;39101;53.478;6.158;2024-02-26T10:58:52;15.45;;;3.90;;
51499;SDS011;39101;53.478;6.158;2024-02-26T11:01:19;8.63;;;2.70;;
51499;SDS011;39101;53.478;6.158;2024-02-26T11:03:50;11.00;;;3.27;;
51499;SDS011;39101;53.478;6.158;2024-02-26T11:06:17;7.68;;;2.75;;
51499;SDS011;39101;53.478;6.158;2024-02-26T11:08:44;9.67;;;3.20;;
51499;SDS011;39101;53.478;6.158;2024-02-26T11:11:13;8.90;;;2.60;;
51499;SDS011;39101;53.478;6.158;2024-02-26T11:13:40;10.30;;;3.30;;
51499;SDS011;39101;53.478;6.158;2024-02-26T11:16:10;12.65;;;3.30;;
51499;SDS011;39101;53.478;6.158;2024-02-26T11:18:36;11.43;;;3.30;;
51499;SDS011;39101;53.478;6.158;2024-02-26T11:21:04;12.17;;;3.43;;
51499;SDS011;39101;53.478;6.158;2024-02-26T11:23:33;10.13;;;3.27;;
51499;SDS011;39101;53.478;6.158;2024-02-26T11:26:02;9.50;;;3.13;;
51499;SDS011;39101;53.478;6.158;2024-02-26T11:28:29;11.70;;;3.20;;
51499;SDS011;39101;53.478;6.158;2024-02-26T11:30:57;11.73;;;2.57;;
51499;SDS011;39101;53.478;6.158;2024-02-26T11:33:26;8.57;;;2.30;;
51499;SDS011;39101;53.478;6.158;2024-02-26T11:35:53;9.27;;;2.03;;
51499;SDS011;39101;53.478;6.158;2024-02-26T11:38:20;9.70;;;2.37;;
51499;SDS011;39101;53.478;6.158;2024-02-26T11:40:48;9.47;;;2.97;;
51499;SDS011;39101;53.478;6.158;2024-02-26T11:43:15;6.30;;;2.27;;
51499;SDS011;39101;53.478;6.158;2024-02-26T11:48:23;11.33;;;2.67;;
51499;SDS011;39101;53.478;6.158;2024-02-26T11:50:51;10.23;;;2.17;;
51499;SDS011;39101;53.478;6.158;2024-02-26T11:53:25;12.93;;;3.33;;
51499;SDS011;39101;53.478;6.158;2024-02-26T11:59:08;14.17;;;3.00;;
51499;SDS011;39101;53.478;6.158;2024-02-26T12:01:42;9.50;;;2.27;;
51499;SDS011;39101;53.478;6.158;2024-02-26T12:06:41;13.90;;;2.93;;
51499;SDS011;39101;53.478;6.158;2024-02-26T12:09:37;7.93;;;2.10;;
51499;SDS011;39101;53.478;6.158;2024-02-26T12:12:05;9.07;;;2.27;;
51499;SDS011;39101;53.478;6.158;2024-02-26T12:14:39;9.57;;;2.60;;
51499;SDS011;39101;53.478;6.158;2024-02-26T12:17:06;11.73;;;2.63;;
51499;SDS011;39101;53.478;6.158;2024-02-26T12:19:44;8.33;;;2.90;;
51499;SDS011;39101;53.478;6.158;2024-02-26T12:22:12;8.13;;;2.80;;
51499;SDS011;39101;53.478;6.158;2024-02-26T12:24:39;8.67;;;2.60;;
51499;SDS011;39101;53.478;6.158;2024-02-26T12:27:04;8.93;;;2.67;;
51499;SDS011;39101;53.478;6.158;2024-02-26T12:29:31;11.30;;;2.40;;
51499;SDS011;39101;53.478;6.158;2024-02-26T12:31:57;7.33;;;2.60;;
51499;SDS011;39101;53.478;6.158;2024-02-26T12:34:23;11.80;;;2.17;;
51499;SDS011;39101;53.478;6.158;2024-02-26T12:36:49;10.63;;;2.97;;
51499;SDS011;39101;53.478;6.158;2024-02-26T12:39:14;12.50;;;2.90;;
51499;SDS011;39101;53.478;6.158;2024-02-26T12:41:40;10.17;;;2.60;;
51499;SDS011;39101;53.478;6.158;2024-02-26T12:44:07;11.40;;;3.23;;
51499;SDS011;39101;53.478;6.158;2024-02-26T12:46:33;9.47;;;2.80;;
51499;SDS011;39101;53.478;6.158;2024-02-26T12:48:59;6.67;;;2.93;;
51499;SDS011;39101;53.478;6.158;2024-02-26T12:51:25;6.57;;;2.70;;
51499;SDS011;39101;53.478;6.158;2024-02-26T12:53:51;8.67;;;2.70;;
51499;SDS011;39101;53.478;6.158;2024-02-26T12:56:18;8.47;;;2.80;;
51499;SDS011;39101;53.478;6.158;2024-02-26T12:58:45;10.37;;;2.97;;
51499;SDS011;39101;53.478;6.158;2024-02-26T13:01:14;8.47;;;2.13;;
51499;SDS011;39101;53.478;6.158;2024-02-26T13:03:41;8.40;;;2.30;;
51499;SDS011;39101;53.478;6.158;2024-02-26T13:06:07;8.07;;;1.97;;
51499;SDS011;39101;53.478;6.158;2024-02-26T13:08:34;5.53;;;1.70;;
51499;SDS011;39101;53.478;6.158;2024-02-26T13:11:00;10.10;;;2.40;;
51499;SDS011;39101;53.478;6.158;2024-02-26T13:13:25;6.20;;;2.10;;
51499;SDS011;39101;53.478;6.158;2024-02-26T13:16:10;8.83;;;2.63;;
51499;SDS011;39101;53.478;6.158;2024-02-26T13:18:40;8.63;;;1.97;;
51499;SDS011;39101;53.478;6.158;2024-02-26T13:21:13;7.57;;;1.80;;
51499;SDS011;39101;53.478;6.158;2024-02-26T13:23:40;10.73;;;1.70;;
51499;SDS011;39101;53.478;6.158;2024-02-26T13:26:07;6.77;;;1.77;;
51499;SDS011;39101;53.478;6.158;2024-02-26T13:28:34;6.10;;;1.73;;
51499;SDS011;39101;53.478;6.158;2024-02-26T13:31:00;5.47;;;1.87;;
51499;SDS011;39101;53.478;6.158;2024-02-26T13:33:29;6.80;;;1.73;;
51499;SDS011;39101;53.478;6.158;2024-02-26T13:35:56;7.83;;;1.47;;
51499;SDS011;39101;53.478;6.158;2024-02-26T13:38:22;4.37;;;1.80;;
51499;SDS011;39101;53.478;6.158;2024-02-26T13:40:49;11.43;;;2.53;;
51499;SDS011;39101;53.478;6.158;2024-02-26T13:43:15;8.93;;;1.67;;
51499;SDS011;39101;53.478;6.158;2024-02-26T13:45:41;7.30;;;1.50;;
51499;SDS011;39101;53.478;6.158;2024-02-26T13:48:07;3.73;;;1.30;;
51499;SDS011;39101;53.478;6.158;2024-02-26T13:50:36;5.97;;;1.20;;
51499;SDS011;39101;53.478;6.158;2024-02-26T13:53:02;8.37;;;1.40;;
51499;SDS011;39101;53.478;6.158;2024-02-26T13:55:29;5.60;;;1.47;;
51499;SDS011;39101;53.478;6.158;2024-02-26T13:57:57;4.27;;;1.33;;
51499;SDS011;39101;53.478;6.158;2024-02-26T14:00:23;6.50;;;0.90;;
51499;SDS011;39101;53.478;6.158;2024-02-26T14:02:52;5.70;;;1.33;;
51499;SDS011;39101;53.478;6.158;2024-02-26T14:05:18;2.67;;;1.13;;
51499;SDS011;39101;53.478;6.158;2024-02-26T14:07:43;2.57;;;1.10;;
51499;SDS011;39101;53.478;6.158;2024-02-26T14:10:11;6.13;;;1.40;;
51499;SDS011;39101;53.478;6.158;2024-02-26T14:12:37;7.90;;;1.30;;
51499;SDS011;39101;53.478;6.158;2024-02-26T14:15:04;5.83;;;1.20;;
51499;SDS011;39101;53.478;6.158;2024-02-26T14:17:32;5.80;;;2.70;;
51499;SDS011;39101;53.478;6.158;2024-02-26T14:19:57;3.87;;;0.90;;
51499;SDS011;39101;53.478;6.158;2024-02-26T14:22:24;6.07;;;1.10;;
51499;SDS011;39101;53.478;6.158;2024-02-26T14:24:51;2.73;;;1.40;;
51499;SDS011;39101;53.478;6.158;2024-02-26T14:27:20;4.97;;;1.07;;
51499;SDS011;39101;53.478;6.158;2024-02-26T14:29:47;7.77;;;1.33;;
51499;SDS011;39101;53.478;6.158;2024-02-26T14:32:14;3.67;;;1.10;;
51499;SDS011;39101;53.478;6.158;2024-02-26T14:34:40;5.73;;;1.00;;
51499;SDS011;39101;53.478;6.158;2024-02-26T14:37:05;3.63;;;1.07;;
51499;SDS011;39101;53.478;6.158;2024-02-26T14:39:31;3.80;;;1.07;;
51499;SDS011;39101;53.478;6.158;2024-02-26T14:41:58;5.20;;;1.03;;
51499;SDS011;39101;53.478;6.158;2024-02-26T14:44:24;8.70;;;2.17;;
51499;SDS011;39101;53.478;6.158;2024-02-26T14:46:50;5.13;;;1.20;;
51499;SDS011;39101;53.478;6.158;2024-02-26T14:49:16;8.77;;;1.30;;
51499;SDS011;39101;53.478;6.158;2024-02-26T14:51:42;5.27;;;1.10;;
51499;SDS011;39101;53.478;6.158;2024-02-26T14:54:10;9.10;;;2.47;;